This is the latest recevied weather packets stored in our database for station/object HB9MIR-13. If no packets are shown the sender has not sent any weather packets the latest 10 day(s).
| Time | Temp. | Humidity | Pressure | Rain* | Wind** | Luminosity | Snow |
|---|---|---|---|---|---|---|---|
| 1777335280 | 8.33° C | 81% | 1015.4 hPa | 0 mm | - | 0 W/m² | - |
| 1777334594 | 8.33° C | 81% | 1015.4 hPa | 0 mm | - | 0 W/m² | - |
| 1777333859 | 8.33° C | 81% | 1015.5 hPa | 0 mm | - | 0 W/m² | - |
| 1777333158 | 8.33° C | 81% | 1015.4 hPa | 0 mm | - | 0 W/m² | - |
| 1777332471 | 8.89° C | 80% | 1015.4 hPa | 0 mm | - | 0 W/m² | - |
| 1777331782 | 8.89° C | 78% | 1015.4 hPa | 0 mm | - | 0 W/m² | - |
| 1777331094 | 8.33° C | 81% | 1015.5 hPa | 0 mm | - | 0 W/m² | - |
| 1777330406 | 8.89° C | 80% | 1015.4 hPa | 0 mm | - | 0 W/m² | - |
| 1777329719 | 8.89° C | 80% | 1015.3 hPa | 0 mm | - | 0 W/m² | - |
| 1777329044 | 9.44° C | 79% | 1015.4 hPa | 0 mm | - | 0 W/m² | - |
| 1777328342 | 9.44° C | 77% | 1015.4 hPa | 0 mm | - | 0 W/m² | - |
| 1777327655 | 10° C | 78% | 1015.4 hPa | 0 mm | - | 0 W/m² | - |
| 1777326969 | 10° C | 78% | 1015.3 hPa | 0 mm | - | 0 W/m² | - |
| 1777326282 | 10° C | 79% | 1015.4 hPa | 0 mm | - | 0 W/m² | - |
| 1777325594 | 10.56° C | 76% | 1015.4 hPa | 0 mm | - | 0 W/m² | - |
| 1777324907 | 10.56° C | 77% | 1015.4 hPa | 0 mm | - | 0 W/m² | - |
| 1777324233 | 10.56° C | 79% | 1015.4 hPa | 0 mm | - | 0 W/m² | - |
| 1777323532 | 11.11° C | 78% | 1015.4 hPa | 0 mm | - | 0 W/m² | - |
| 1777322844 | 11.67° C | 77% | 1015.4 hPa | 0 mm | - | 0 W/m² | - |
| 1777322157 | 11.67° C | 75% | 1015.5 hPa | 0 mm | - | 0 W/m² | - |
| 1777321470 | 11.67° C | 76% | 1015.4 hPa | 0 mm | - | 0 W/m² | - |
| 1777320783 | 12.22° C | 74% | 1015.4 hPa | 0 mm | - | 0 W/m² | - |
| 1777320097 | 12.22° C | 74% | 1015.3 hPa | 0 mm | - | 0 W/m² | - |
| 1777319421 | 12.78° C | 69% | 1015.3 hPa | 0 mm | - | 0 W/m² | - |
| 1777318721 | 13.33° C | 70% | 1015.2 hPa | 0 mm | - | 0 W/m² | - |
* Rain latest hour (hover to see other rain measurements)
** Current wind speed in m/s (hover to see current wind gust speed)